Share

Dennehotso, AZ

Cortez Municipal (KCEZ) Elev 5915 ft | 37.31 °N, 108.63 °W | Change Station

Current weather conditions updated 3 minutes ago

Clear
Clear
33 °F
Feels Like 29 °F
N
5
Wind Variable Wind from ENE
Sunrise 6:41 AM
Sunset 7:56 PM
Moon Waning Gibbous

Today is forecast to be Much Warmer than yesterday.

Pressure 30.01 in
Visibility 10.0 miles
Clouds Clear
Windchill 29 °F
Dew Point 22 °F
Humidity 64%
Rainfall 0.00 in
Snow Depth Not available.
UV 0 out of 16
Pollen 9.10 out of 12
Air Quality Not available.
Flu Activity Local Activity
METAR KCEZ 180753Z AUTO 06004KT 10SM CLR 01/M06 A3011 RMK AO2 SLP160 T00061056

More Conditions Fewer Conditions

Pressure 30.01 in
Visibility 10.0 miles
Clouds Clear
Windchill 29 °F
Dew Point 22 °F
Humidity 64%
Rainfall 0.00 in
Snow Depth Not available.
UV 0 out of 16
Pollen 9.10 out of 12
Air Quality Not available.
Flu Activity Local Activity
METAR KCEZ 180753Z AUTO 06004KT 10SM CLR 01/M06 A3011 RMK AO2 SLP160 T00061056

More Conditions Fewer Conditions

10-Day Forecast

Almanac

Astronomy

Apr. 18, 2014 Rise Set
Actual Time 6:41 AM MDT 7:56 PM MDT
Civil Twilight 6:14 AM MDT 8:23 PM MDT
Nautical Twilight 5:42 AM MDT 8:55 PM MDT
Astronomical Twilight 5:09 AM MDT 9:29 PM MDT
Moon 11:41 PM MDT 9:09 AM MDT
Length of Visible Light 14h 09m
Length of Day
13h 15m
Tomorrow will be 2m 12s longer.
Waning Gibbous, 90% of the Moon is Illuminated
Today
Waning Gibbous
Apr 22
Last Quarter
Apr 29
New
May 6
First Quarter
May 14
Full

Today's Extremes

State Highs State Lows

Community

  • SUNRISE THROUGH THE TREES.
    SUNRISE THROUGH THE TREES.
  • Dog Wood Blossoms
    Dog Wood Blossoms
  • Morning Light
    Morning Light
  • New Day
    New Day
  • Lake Michigan Sunrise
    Lake Michigan Sunrise

WunderPhotos

Upload Photos

1,702,279 photos uploaded!

WunderBlogs® & News

Nearby

Snow Depth

Station Depth Elevation
Snowslide Canyon 7 in 9730 ft
Mormon Mountain 0 in 7500 ft
Happy Jack 1 in 7630 ft
White Horse Lake 0 in 7180 ft
Heber 1 in 7640 ft

Coastal Water Temperatures

Place Temperature
No Stations Reporting

Earthquake Activity

City Distance Mag. Time & Date
No recent earthquake activity has been reported nearby.
Minimum magnitude displayed is 2.5.

Nearby Weather Stations

There are no personal weather stations in this area.

What do you think?

We're not finished. Please let us know what you like, what you don't like, and what you are still missing.